sensor_id;sensor_type;location;lat;lon;timestamp;P1;durP1;ratioP1;P2;durP2;ratioP2
40959;SDS011;27842;52.272;8.052;2023-11-19T00:00:28;19.43;;;10.83;;
40959;SDS011;27842;52.272;8.052;2023-11-19T00:02:54;18.47;;;11.50;;
40959;SDS011;27842;52.272;8.052;2023-11-19T00:05:19;19.53;;;11.73;;
40959;SDS011;27842;52.272;8.052;2023-11-19T00:07:45;19.23;;;11.23;;
40959;SDS011;27842;52.272;8.052;2023-11-19T00:10:12;20.50;;;12.07;;
40959;SDS011;27842;52.272;8.052;2023-11-19T00:12:40;19.25;;;11.25;;
40959;SDS011;27842;52.272;8.052;2023-11-19T00:15:07;19.07;;;10.97;;
40959;SDS011;27842;52.272;8.052;2023-11-19T00:17:42;20.60;;;11.07;;
40959;SDS011;27842;52.272;8.052;2023-11-19T00:20:14;18.80;;;10.80;;
40959;SDS011;27842;52.272;8.052;2023-11-19T00:22:44;18.50;;;11.13;;
40959;SDS011;27842;52.272;8.052;2023-11-19T00:25:11;18.17;;;10.57;;
40959;SDS011;27842;52.272;8.052;2023-11-19T00:27:36;18.00;;;10.17;;
40959;SDS011;27842;52.272;8.052;2023-11-19T00:30:03;18.37;;;10.37;;
40959;SDS011;27842;52.272;8.052;2023-11-19T00:32:33;17.30;;;9.70;;
40959;SDS011;27842;52.272;8.052;2023-11-19T00:34:58;16.70;;;9.50;;
40959;SDS011;27842;52.272;8.052;2023-11-19T00:37:24;16.53;;;9.13;;
40959;SDS011;27842;52.272;8.052;2023-11-19T00:39:50;15.90;;;8.53;;
40959;SDS011;27842;52.272;8.052;2023-11-19T00:42:17;16.23;;;8.90;;
40959;SDS011;27842;52.272;8.052;2023-11-19T00:44:42;15.10;;;8.15;;
40959;SDS011;27842;52.272;8.052;2023-11-19T00:47:08;16.90;;;8.77;;
40959;SDS011;27842;52.272;8.052;2023-11-19T00:49:33;15.63;;;8.10;;
40959;SDS011;27842;52.272;8.052;2023-11-19T00:51:59;15.45;;;8.23;;
40959;SDS011;27842;52.272;8.052;2023-11-19T00:54:25;15.70;;;8.10;;
40959;SDS011;27842;52.272;8.052;2023-11-19T00:56:54;17.08;;;8.65;;
40959;SDS011;27842;52.272;8.052;2023-11-19T00:59:20;15.20;;;7.85;;
40959;SDS011;27842;52.272;8.052;2023-11-19T01:01:46;15.60;;;8.60;;
40959;SDS011;27842;52.272;8.052;2023-11-19T01:04:16;15.90;;;8.10;;
40959;SDS011;27842;52.272;8.052;2023-11-19T01:06:41;17.73;;;9.07;;
40959;SDS011;27842;52.272;8.052;2023-11-19T01:09:07;17.10;;;9.00;;
40959;SDS011;27842;52.272;8.052;2023-11-19T01:11:34;17.33;;;9.23;;
40959;SDS011;27842;52.272;8.052;2023-11-19T01:14:00;16.30;;;9.10;;
40959;SDS011;27842;52.272;8.052;2023-11-19T01:16:25;18.07;;;10.27;;
40959;SDS011;27842;52.272;8.052;2023-11-19T01:18:51;17.92;;;10.50;;
40959;SDS011;27842;52.272;8.052;2023-11-19T01:21:17;18.77;;;9.77;;
40959;SDS011;27842;52.272;8.052;2023-11-19T01:23:43;20.05;;;10.70;;
40959;SDS011;27842;52.272;8.052;2023-11-19T01:26:09;18.53;;;10.37;;
40959;SDS011;27842;52.272;8.052;2023-11-19T01:28:35;18.47;;;10.60;;
40959;SDS011;27842;52.272;8.052;2023-11-19T01:31:01;18.93;;;11.10;;
40959;SDS011;27842;52.272;8.052;2023-11-19T01:33:28;18.92;;;10.93;;
40959;SDS011;27842;52.272;8.052;2023-11-19T01:35:54;18.73;;;11.23;;
40959;SDS011;27842;52.272;8.052;2023-11-19T01:38:23;19.70;;;11.73;;
40959;SDS011;27842;52.272;8.052;2023-11-19T01:40:49;20.48;;;12.20;;
40959;SDS011;27842;52.272;8.052;2023-11-19T01:43:31;20.63;;;11.75;;
40959;SDS011;27842;52.272;8.052;2023-11-19T01:46:01;22.38;;;12.30;;
40959;SDS011;27842;52.272;8.052;2023-11-19T01:48:28;22.35;;;13.85;;
40959;SDS011;27842;52.272;8.052;2023-11-19T01:50:55;22.03;;;13.47;;
40959;SDS011;27842;52.272;8.052;2023-11-19T01:53:23;23.58;;;14.57;;
40959;SDS011;27842;52.272;8.052;2023-11-19T01:55:48;23.80;;;14.77;;
40959;SDS011;27842;52.272;8.052;2023-11-19T01:58:15;27.80;;;15.88;;
40959;SDS011;27842;52.272;8.052;2023-11-19T02:00:41;24.75;;;15.50;;
40959;SDS011;27842;52.272;8.052;2023-11-19T02:03:08;26.73;;;16.15;;
40959;SDS011;27842;52.272;8.052;2023-11-19T02:05:35;25.35;;;14.35;;
40959;SDS011;27842;52.272;8.052;2023-11-19T02:08:01;28.53;;;16.97;;
40959;SDS011;27842;52.272;8.052;2023-11-19T02:10:28;28.38;;;16.90;;
40959;SDS011;27842;52.272;8.052;2023-11-19T02:12:53;28.38;;;17.25;;
40959;SDS011;27842;52.272;8.052;2023-11-19T02:15:20;29.20;;;18.30;;
40959;SDS011;27842;52.272;8.052;2023-11-19T02:17:49;29.27;;;17.77;;
40959;SDS011;27842;52.272;8.052;2023-11-19T02:20:18;28.60;;;17.42;;
40959;SDS011;27842;52.272;8.052;2023-11-19T02:22:45;29.00;;;18.17;;
40959;SDS011;27842;52.272;8.052;2023-11-19T02:25:46;30.25;;;18.75;;
40959;SDS011;27842;52.272;8.052;2023-11-19T02:28:05;32.83;;;17.33;;
40959;SDS011;27842;52.272;8.052;2023-11-19T02:30:32;32.20;;;18.33;;
40959;SDS011;27842;52.272;8.052;2023-11-19T02:33:01;30.63;;;18.85;;
40959;SDS011;27842;52.272;8.052;2023-11-19T02:35:30;33.10;;;19.15;;
40959;SDS011;27842;52.272;8.052;2023-11-19T02:37:56;34.53;;;19.23;;
40959;SDS011;27842;52.272;8.052;2023-11-19T02:40:27;30.45;;;18.85;;
40959;SDS011;27842;52.272;8.052;2023-11-19T02:42:53;29.52;;;18.38;;
40959;SDS011;27842;52.272;8.052;2023-11-19T02:45:20;37.85;;;20.35;;
40959;SDS011;27842;52.272;8.052;2023-11-19T02:47:50;34.67;;;19.02;;
40959;SDS011;27842;52.272;8.052;2023-11-19T02:50:19;35.78;;;19.02;;
40959;SDS011;27842;52.272;8.052;2023-11-19T02:52:50;34.30;;;18.52;;
40959;SDS011;27842;52.272;8.052;2023-11-19T02:55:18;39.25;;;21.42;;
40959;SDS011;27842;52.272;8.052;2023-11-19T02:57:44;39.53;;;21.17;;
40959;SDS011;27842;52.272;8.052;2023-11-19T03:00:14;35.28;;;20.75;;
40959;SDS011;27842;52.272;8.052;2023-11-19T03:02:41;37.15;;;21.52;;
40959;SDS011;27842;52.272;8.052;2023-11-19T03:05:11;34.90;;;20.23;;
40959;SDS011;27842;52.272;8.052;2023-11-19T03:07:39;39.00;;;21.33;;
40959;SDS011;27842;52.272;8.052;2023-11-19T03:10:06;35.67;;;21.77;;
40959;SDS011;27842;52.272;8.052;2023-11-19T03:12:33;38.05;;;21.05;;
40959;SDS011;27842;52.272;8.052;2023-11-19T03:14:59;37.08;;;20.90;;
40959;SDS011;27842;52.272;8.052;2023-11-19T03:17:25;36.55;;;20.60;;
40959;SDS011;27842;52.272;8.052;2023-11-19T03:19:50;37.78;;;19.88;;
40959;SDS011;27842;52.272;8.052;2023-11-19T03:22:16;36.95;;;20.63;;
40959;SDS011;27842;52.272;8.052;2023-11-19T03:24:41;34.08;;;20.05;;
40959;SDS011;27842;52.272;8.052;2023-11-19T03:27:07;38.72;;;21.55;;
40959;SDS011;27842;52.272;8.052;2023-11-19T03:29:32;35.28;;;21.30;;
40959;SDS011;27842;52.272;8.052;2023-11-19T03:31:58;37.03;;;21.27;;
40959;SDS011;27842;52.272;8.052;2023-11-19T03:34:23;37.05;;;20.45;;
40959;SDS011;27842;52.272;8.052;2023-11-19T03:36:49;36.95;;;20.95;;
40959;SDS011;27842;52.272;8.052;2023-11-19T03:39:14;38.15;;;20.38;;
40959;SDS011;27842;52.272;8.052;2023-11-19T03:41:40;40.08;;;19.95;;
40959;SDS011;27842;52.272;8.052;2023-11-19T03:44:06;37.80;;;21.20;;
40959;SDS011;27842;52.272;8.052;2023-11-19T03:46:31;38.60;;;20.55;;
40959;SDS011;27842;52.272;8.052;2023-11-19T03:48:57;37.15;;;20.55;;
40959;SDS011;27842;52.272;8.052;2023-11-19T03:51:22;36.50;;;21.00;;
40959;SDS011;27842;52.272;8.052;2023-11-19T03:53:48;35.72;;;20.35;;
40959;SDS011;27842;52.272;8.052;2023-11-19T03:56:13;36.05;;;20.15;;
40959;SDS011;27842;52.272;8.052;2023-11-19T03:58:39;38.83;;;20.27;;
40959;SDS011;27842;52.272;8.052;2023-11-19T04:01:05;36.28;;;20.65;;
40959;SDS011;27842;52.272;8.052;2023-11-19T04:03:35;33.70;;;18.98;;
40959;SDS011;27842;52.272;8.052;2023-11-19T04:06:01;40.58;;;19.83;;
40959;SDS011;27842;52.272;8.052;2023-11-19T04:08:27;38.00;;;19.52;;
40959;SDS011;27842;52.272;8.052;2023-11-19T04:10:53;38.80;;;20.05;;
40959;SDS011;27842;52.272;8.052;2023-11-19T04:13:18;39.05;;;19.27;;
40959;SDS011;27842;52.272;8.052;2023-11-19T04:15:45;40.97;;;19.42;;
40959;SDS011;27842;52.272;8.052;2023-11-19T04:18:10;38.85;;;18.50;;
40959;SDS011;27842;52.272;8.052;2023-11-19T04:20:36;35.75;;;19.02;;
40959;SDS011;27842;52.272;8.052;2023-11-19T04:23:02;38.30;;;18.73;;
40959;SDS011;27842;52.272;8.052;2023-11-19T04:25:28;39.10;;;18.10;;
40959;SDS011;27842;52.272;8.052;2023-11-19T04:27:53;35.72;;;17.50;;
40959;SDS011;27842;52.272;8.052;2023-11-19T04:30:19;37.63;;;16.83;;
40959;SDS011;27842;52.272;8.052;2023-11-19T04:32:45;34.90;;;15.60;;
40959;SDS011;27842;52.272;8.052;2023-11-19T04:35:10;36.10;;;15.63;;
40959;SDS011;27842;52.272;8.052;2023-11-19T04:37:36;35.17;;;15.15;;
40959;SDS011;27842;52.272;8.052;2023-11-19T04:40:02;33.67;;;15.20;;
40959;SDS011;27842;52.272;8.052;2023-11-19T04:42:28;32.47;;;14.40;;
40959;SDS011;27842;52.272;8.052;2023-11-19T04:44:54;34.50;;;13.45;;
40959;SDS011;27842;52.272;8.052;2023-11-19T04:47:20;26.48;;;12.50;;
40959;SDS011;27842;52.272;8.052;2023-11-19T04:49:46;34.35;;;13.07;;
40959;SDS011;27842;52.272;8.052;2023-11-19T04:52:12;33.25;;;11.98;;
40959;SDS011;27842;52.272;8.052;2023-11-19T04:54:44;36.00;;;11.18;;
40959;SDS011;27842;52.272;8.052;2023-11-19T04:57:09;29.15;;;10.05;;
40959;SDS011;27842;52.272;8.052;2023-11-19T04:59:38;27.70;;;10.13;;
40959;SDS011;27842;52.272;8.052;2023-11-19T05:02:04;32.75;;;10.40;;
40959;SDS011;27842;52.272;8.052;2023-11-19T05:04:30;35.83;;;10.38;;
40959;SDS011;27842;52.272;8.052;2023-11-19T05:06:56;30.10;;;8.93;;
40959;SDS011;27842;52.272;8.052;2023-11-19T05:09:22;33.20;;;8.07;;
40959;SDS011;27842;52.272;8.052;2023-11-19T05:11:48;28.90;;;7.90;;
40959;SDS011;27842;52.272;8.052;2023-11-19T05:14:13;25.48;;;7.28;;
40959;SDS011;27842;52.272;8.052;2023-11-19T05:16:40;33.95;;;8.40;;
40959;SDS011;27842;52.272;8.052;2023-11-19T05:19:08;29.67;;;7.15;;
40959;SDS011;27842;52.272;8.052;2023-11-19T05:21:34;38.00;;;8.48;;
40959;SDS011;27842;52.272;8.052;2023-11-19T05:24:01;31.88;;;7.20;;
40959;SDS011;27842;52.272;8.052;2023-11-19T05:26:29;30.40;;;7.07;;
40959;SDS011;27842;52.272;8.052;2023-11-19T05:28:55;31.30;;;7.95;;
40959;SDS011;27842;52.272;8.052;2023-11-19T05:31:21;27.15;;;7.22;;
40959;SDS011;27842;52.272;8.052;2023-11-19T05:33:46;27.85;;;6.90;;
40959;SDS011;27842;52.272;8.052;2023-11-19T05:36:12;28.67;;;6.68;;
40959;SDS011;27842;52.272;8.052;2023-11-19T05:38:38;39.55;;;6.70;;
40959;SDS011;27842;52.272;8.052;2023-11-19T05:41:04;31.85;;;6.88;;
40959;SDS011;27842;52.272;8.052;2023-11-19T05:43:30;29.95;;;6.88;;
40959;SDS011;27842;52.272;8.052;2023-11-19T05:45:56;27.73;;;7.20;;
40959;SDS011;27842;52.272;8.052;2023-11-19T05:48:22;33.25;;;6.82;;
40959;SDS011;27842;52.272;8.052;2023-11-19T05:50:47;33.17;;;6.95;;
40959;SDS011;27842;52.272;8.052;2023-11-19T05:53:15;37.60;;;7.60;;
40959;SDS011;27842;52.272;8.052;2023-11-19T05:55:41;31.67;;;6.18;;
40959;SDS011;27842;52.272;8.052;2023-11-19T05:58:19;31.88;;;5.85;;
40959;SDS011;27842;52.272;8.052;2023-11-19T06:00:48;28.50;;;6.07;;
40959;SDS011;27842;52.272;8.052;2023-11-19T06:03:15;27.80;;;6.05;;
40959;SDS011;27842;52.272;8.052;2023-11-19T06:05:41;33.08;;;6.32;;
40959;SDS011;27842;52.272;8.052;2023-11-19T06:08:11;34.67;;;7.30;;
40959;SDS011;27842;52.272;8.052;2023-11-19T06:10:38;26.27;;;4.97;;
40959;SDS011;27842;52.272;8.052;2023-11-19T06:13:04;27.90;;;5.60;;
40959;SDS011;27842;52.272;8.052;2023-11-19T06:15:30;30.58;;;5.93;;
40959;SDS011;27842;52.272;8.052;2023-11-19T06:17:57;30.15;;;6.22;;
40959;SDS011;27842;52.272;8.052;2023-11-19T06:20:24;30.92;;;6.30;;
40959;SDS011;27842;52.272;8.052;2023-11-19T06:22:50;30.90;;;5.35;;
40959;SDS011;27842;52.272;8.052;2023-11-19T06:25:15;31.65;;;5.57;;
40959;SDS011;27842;52.272;8.052;2023-11-19T06:27:41;28.13;;;5.40;;
40959;SDS011;27842;52.272;8.052;2023-11-19T06:30:07;28.25;;;6.13;;
40959;SDS011;27842;52.272;8.052;2023-11-19T06:32:33;30.02;;;6.40;;
40959;SDS011;27842;52.272;8.052;2023-11-19T06:34:59;31.33;;;5.80;;
40959;SDS011;27842;52.272;8.052;2023-11-19T06:37:25;29.75;;;6.00;;
40959;SDS011;27842;52.272;8.052;2023-11-19T06:39:52;25.88;;;4.80;;
40959;SDS011;27842;52.272;8.052;2023-11-19T06:42:17;25.27;;;4.82;;
40959;SDS011;27842;52.272;8.052;2023-11-19T06:44:43;37.00;;;6.13;;
40959;SDS011;27842;52.272;8.052;2023-11-19T06:47:09;30.98;;;5.63;;
40959;SDS011;27842;52.272;8.052;2023-11-19T06:49:34;30.08;;;5.43;;
40959;SDS011;27842;52.272;8.052;2023-11-19T06:52:00;31.85;;;5.57;;
40959;SDS011;27842;52.272;8.052;2023-11-19T06:54:25;31.95;;;5.70;;
40959;SDS011;27842;52.272;8.052;2023-11-19T06:56:51;26.38;;;5.10;;
40959;SDS011;27842;52.272;8.052;2023-11-19T06:59:16;32.80;;;5.70;;
40959;SDS011;27842;52.272;8.052;2023-11-19T07:01:42;29.27;;;4.88;;
40959;SDS011;27842;52.272;8.052;2023-11-19T07:04:13;32.45;;;5.78;;
40959;SDS011;27842;52.272;8.052;2023-11-19T07:06:38;35.03;;;6.15;;
40959;SDS011;27842;52.272;8.052;2023-11-19T07:09:06;32.03;;;5.35;;
40959;SDS011;27842;52.272;8.052;2023-11-19T07:14:01;33.30;;;5.78;;
40959;SDS011;27842;52.272;8.052;2023-11-19T07:16:27;31.23;;;5.95;;
40959;SDS011;27842;52.272;8.052;2023-11-19T07:18:53;41.13;;;6.78;;
40959;SDS011;27842;52.272;8.052;2023-11-19T07:21:19;37.85;;;6.90;;
40959;SDS011;27842;52.272;8.052;2023-11-19T07:23:44;34.00;;;6.07;;
40959;SDS011;27842;52.272;8.052;2023-11-19T07:26:11;34.75;;;5.63;;
40959;SDS011;27842;52.272;8.052;2023-11-19T07:28:37;38.40;;;5.35;;
40959;SDS011;27842;52.272;8.052;2023-11-19T07:31:04;33.95;;;6.20;;
40959;SDS011;27842;52.272;8.052;2023-11-19T07:33:33;34.60;;;5.72;;
40959;SDS011;27842;52.272;8.052;2023-11-19T07:35:58;35.47;;;5.68;;
40959;SDS011;27842;52.272;8.052;2023-11-19T07:38:24;38.53;;;7.25;;
40959;SDS011;27842;52.272;8.052;2023-11-19T07:40:50;32.30;;;6.38;;
40959;SDS011;27842;52.272;8.052;2023-11-19T07:43:15;35.17;;;5.82;;
40959;SDS011;27842;52.272;8.052;2023-11-19T07:45:41;36.90;;;6.35;;
40959;SDS011;27842;52.272;8.052;2023-11-19T07:48:09;39.38;;;6.95;;
40959;SDS011;27842;52.272;8.052;2023-11-19T07:50:38;32.13;;;6.47;;
40959;SDS011;27842;52.272;8.052;2023-11-19T07:53:05;34.13;;;6.15;;
40959;SDS011;27842;52.272;8.052;2023-11-19T07:55:32;34.53;;;5.25;;
40959;SDS011;27842;52.272;8.052;2023-11-19T07:57:58;34.25;;;5.88;;
40959;SDS011;27842;52.272;8.052;2023-11-19T08:00:23;35.42;;;6.57;;
40959;SDS011;27842;52.272;8.052;2023-11-19T08:02:49;34.63;;;5.53;;
40959;SDS011;27842;52.272;8.052;2023-11-19T08:05:15;33.78;;;6.30;;
40959;SDS011;27842;52.272;8.052;2023-11-19T08:07:40;33.90;;;6.35;;
40959;SDS011;27842;52.272;8.052;2023-11-19T08:10:06;35.38;;;6.07;;
40959;SDS011;27842;52.272;8.052;2023-11-19T08:12:35;38.43;;;7.50;;
40959;SDS011;27842;52.272;8.052;2023-11-19T08:15:04;34.63;;;6.55;;
40959;SDS011;27842;52.272;8.052;2023-11-19T08:17:30;39.33;;;5.93;;
40959;SDS011;27842;52.272;8.052;2023-11-19T08:19:56;30.67;;;5.20;;
40959;SDS011;27842;52.272;8.052;2023-11-19T08:22:21;42.70;;;6.45;;
40959;SDS011;27842;52.272;8.052;2023-11-19T08:24:47;33.42;;;6.38;;
40959;SDS011;27842;52.272;8.052;2023-11-19T08:27:13;37.63;;;6.38;;
40959;SDS011;27842;52.272;8.052;2023-11-19T08:29:39;33.47;;;5.82;;
40959;SDS011;27842;52.272;8.052;2023-11-19T08:32:05;37.08;;;6.20;;
40959;SDS011;27842;52.272;8.052;2023-11-19T08:34:32;32.67;;;6.28;;
40959;SDS011;27842;52.272;8.052;2023-11-19T08:36:57;37.72;;;6.10;;
40959;SDS011;27842;52.272;8.052;2023-11-19T08:39:23;32.72;;;6.40;;
40959;SDS011;27842;52.272;8.052;2023-11-19T08:41:49;28.90;;;4.90;;
40959;SDS011;27842;52.272;8.052;2023-11-19T08:44:15;40.22;;;6.78;;
40959;SDS011;27842;52.272;8.052;2023-11-19T08:46:50;32.03;;;5.43;;
40959;SDS011;27842;52.272;8.052;2023-11-19T08:49:16;36.97;;;5.35;;
40959;SDS011;27842;52.272;8.052;2023-11-19T08:51:42;37.05;;;6.57;;
40959;SDS011;27842;52.272;8.052;2023-11-19T08:54:08;37.30;;;6.75;;
40959;SDS011;27842;52.272;8.052;2023-11-19T08:56:33;34.10;;;5.68;;
40959;SDS011;27842;52.272;8.052;2023-11-19T08:59:00;28.65;;;4.65;;
40959;SDS011;27842;52.272;8.052;2023-11-19T09:01:26;41.58;;;8.10;;
40959;SDS011;27842;52.272;8.052;2023-11-19T09:03:52;33.80;;;5.82;;
40959;SDS011;27842;52.272;8.052;2023-11-19T09:06:17;35.80;;;5.63;;
40959;SDS011;27842;52.272;8.052;2023-11-19T09:08:43;32.00;;;6.18;;
40959;SDS011;27842;52.272;8.052;2023-11-19T09:11:08;34.58;;;5.50;;
40959;SDS011;27842;52.272;8.052;2023-11-19T09:13:34;33.55;;;6.38;;
40959;SDS011;27842;52.272;8.052;2023-11-19T09:16:00;29.17;;;5.00;;
40959;SDS011;27842;52.272;8.052;2023-11-19T09:18:29;39.22;;;7.38;;
40959;SDS011;27842;52.272;8.052;2023-11-19T09:20:55;43.20;;;7.32;;
40959;SDS011;27842;52.272;8.052;2023-11-19T09:23:21;36.58;;;6.28;;
40959;SDS011;27842;52.272;8.052;2023-11-19T09:25:46;38.20;;;6.85;;
40959;SDS011;27842;52.272;8.052;2023-11-19T09:28:12;41.47;;;7.85;;
40959;SDS011;27842;52.272;8.052;2023-11-19T09:30:39;31.45;;;5.85;;
40959;SDS011;27842;52.272;8.052;2023-11-19T09:33:05;36.80;;;5.60;;
40959;SDS011;27842;52.272;8.052;2023-11-19T09:35:30;37.70;;;7.25;;
40959;SDS011;27842;52.272;8.052;2023-11-19T09:37:56;34.88;;;6.50;;
40959;SDS011;27842;52.272;8.052;2023-11-19T09:40:22;31.15;;;5.93;;
40959;SDS011;27842;52.272;8.052;2023-11-19T09:42:48;35.53;;;7.20;;
40959;SDS011;27842;52.272;8.052;2023-11-19T09:45:14;37.15;;;6.28;;
40959;SDS011;27842;52.272;8.052;2023-11-19T09:47:44;45.63;;;7.40;;
40959;SDS011;27842;52.272;8.052;2023-11-19T09:50:17;29.77;;;5.90;;
40959;SDS011;27842;52.272;8.052;2023-11-19T09:52:44;38.13;;;6.93;;
40959;SDS011;27842;52.272;8.052;2023-11-19T09:55:11;44.33;;;7.47;;
40959;SDS011;27842;52.272;8.052;2023-11-19T09:57:38;33.42;;;5.85;;
40959;SDS011;27842;52.272;8.052;2023-11-19T10:00:04;39.55;;;7.20;;
40959;SDS011;27842;52.272;8.052;2023-11-19T10:02:32;29.17;;;6.22;;
40959;SDS011;27842;52.272;8.052;2023-11-19T10:05:02;41.10;;;6.50;;
40959;SDS011;27842;52.272;8.052;2023-11-19T10:07:30;38.47;;;6.95;;
40959;SDS011;27842;52.272;8.052;2023-11-19T10:09:57;34.33;;;6.90;;
40959;SDS011;27842;52.272;8.052;2023-11-19T10:12:29;33.72;;;6.35;;
40959;SDS011;27842;52.272;8.052;2023-11-19T10:14:58;38.70;;;8.85;;
40959;SDS011;27842;52.272;8.052;2023-11-19T10:17:33;33.70;;;7.00;;
40959;SDS011;27842;52.272;8.052;2023-11-19T10:19:59;37.38;;;7.20;;
40959;SDS011;27842;52.272;8.052;2023-11-19T10:22:27;38.45;;;7.57;;
40959;SDS011;27842;52.272;8.052;2023-11-19T10:24:53;31.08;;;6.18;;
40959;SDS011;27842;52.272;8.052;2023-11-19T10:27:18;40.05;;;6.78;;
40959;SDS011;27842;52.272;8.052;2023-11-19T10:29:47;36.13;;;6.95;;
40959;SDS011;27842;52.272;8.052;2023-11-19T10:32:13;35.35;;;7.28;;
40959;SDS011;27842;52.272;8.052;2023-11-19T10:34:42;36.40;;;7.03;;
40959;SDS011;27842;52.272;8.052;2023-11-19T10:37:08;33.72;;;5.95;;
40959;SDS011;27842;52.272;8.052;2023-11-19T10:39:53;35.33;;;6.45;;
40959;SDS011;27842;52.272;8.052;2023-11-19T10:42:22;41.65;;;6.38;;
40959;SDS011;27842;52.272;8.052;2023-11-19T10:44:48;33.25;;;5.55;;
40959;SDS011;27842;52.272;8.052;2023-11-19T10:47:14;38.72;;;6.72;;
40959;SDS011;27842;52.272;8.052;2023-11-19T10:49:43;45.13;;;6.15;;
40959;SDS011;27842;52.272;8.052;2023-11-19T10:52:10;31.05;;;5.88;;
40959;SDS011;27842;52.272;8.052;2023-11-19T10:54:41;30.67;;;5.60;;
40959;SDS011;27842;52.272;8.052;2023-11-19T10:57:09;39.47;;;7.30;;
40959;SDS011;27842;52.272;8.052;2023-11-19T10:59:40;39.95;;;6.28;;
40959;SDS011;27842;52.272;8.052;2023-11-19T11:02:07;38.85;;;6.70;;
40959;SDS011;27842;52.272;8.052;2023-11-19T11:04:39;40.05;;;7.63;;
40959;SDS011;27842;52.272;8.052;2023-11-19T11:07:07;29.70;;;5.85;;
40959;SDS011;27842;52.272;8.052;2023-11-19T11:09:33;42.35;;;8.88;;
40959;SDS011;27842;52.272;8.052;2023-11-19T11:12:00;41.78;;;8.13;;
40959;SDS011;27842;52.272;8.052;2023-11-19T11:14:26;38.72;;;7.55;;
40959;SDS011;27842;52.272;8.052;2023-11-19T11:16:53;38.00;;;8.30;;
40959;SDS011;27842;52.272;8.052;2023-11-19T11:19:20;36.47;;;7.90;;
40959;SDS011;27842;52.272;8.052;2023-11-19T11:21:47;35.60;;;8.55;;
40959;SDS011;27842;52.272;8.052;2023-11-19T11:29:59;32.35;;;7.47;;
40959;SDS011;27842;52.272;8.052;2023-11-19T11:35:23;39.90;;;7.43;;
40959;SDS011;27842;52.272;8.052;2023-11-19T11:38:03;30.75;;;6.07;;
40959;SDS011;27842;52.272;8.052;2023-11-19T11:40:31;33.58;;;6.38;;
40959;SDS011;27842;52.272;8.052;2023-11-19T11:42:57;28.02;;;6.38;;
40959;SDS011;27842;52.272;8.052;2023-11-19T11:45:37;40.63;;;7.95;;
40959;SDS011;27842;52.272;8.052;2023-11-19T11:48:08;34.80;;;8.27;;
40959;SDS011;27842;52.272;8.052;2023-11-19T11:50:34;40.85;;;9.18;;
40959;SDS011;27842;52.272;8.052;2023-11-19T11:58:01;35.92;;;7.35;;
40959;SDS011;27842;52.272;8.052;2023-11-19T12:00:29;32.13;;;6.63;;
40959;SDS011;27842;52.272;8.052;2023-11-19T12:02:57;42.22;;;8.75;;
40959;SDS011;27842;52.272;8.052;2023-11-19T12:05:24;50.03;;;12.90;;
40959;SDS011;27842;52.272;8.052;2023-11-19T12:07:57;44.60;;;11.45;;
40959;SDS011;27842;52.272;8.052;2023-11-19T12:10:29;41.17;;;9.80;;
40959;SDS011;27842;52.272;8.052;2023-11-19T12:12:58;46.17;;;10.63;;
40959;SDS011;27842;52.272;8.052;2023-11-19T12:15:25;33.60;;;6.90;;
40959;SDS011;27842;52.272;8.052;2023-11-19T12:17:52;35.65;;;7.22;;
40959;SDS011;27842;52.272;8.052;2023-11-19T12:20:23;37.90;;;9.55;;
40959;SDS011;27842;52.272;8.052;2023-11-19T12:22:50;38.65;;;9.60;;
40959;SDS011;27842;52.272;8.052;2023-11-19T12:25:16;40.50;;;8.23;;
40959;SDS011;27842;52.272;8.052;2023-11-19T12:27:47;39.47;;;8.40;;
40959;SDS011;27842;52.272;8.052;2023-11-19T12:30:23;34.50;;;7.38;;
40959;SDS011;27842;52.272;8.052;2023-11-19T12:32:50;37.85;;;6.72;;
40959;SDS011;27842;52.272;8.052;2023-11-19T12:35:18;38.20;;;8.03;;
40959;SDS011;27842;52.272;8.052;2023-11-19T12:37:48;36.05;;;6.30;;
40959;SDS011;27842;52.272;8.052;2023-11-19T12:40:16;36.33;;;5.90;;
40959;SDS011;27842;52.272;8.052;2023-11-19T12:42:49;28.70;;;5.68;;
40959;SDS011;27842;52.272;8.052;2023-11-19T12:45:17;34.38;;;6.93;;
40959;SDS011;27842;52.272;8.052;2023-11-19T12:47:45;34.53;;;6.70;;
40959;SDS011;27842;52.272;8.052;2023-11-19T12:50:14;35.08;;;5.80;;
40959;SDS011;27842;52.272;8.052;2023-11-19T12:52:42;34.35;;;6.28;;
40959;SDS011;27842;52.272;8.052;2023-11-19T12:55:24;37.72;;;7.03;;
40959;SDS011;27842;52.272;8.052;2023-11-19T12:57:51;31.77;;;6.40;;
40959;SDS011;27842;52.272;8.052;2023-11-19T13:00:18;30.95;;;5.28;;
40959;SDS011;27842;52.272;8.052;2023-11-19T13:02:49;30.00;;;6.40;;
40959;SDS011;27842;52.272;8.052;2023-11-19T13:05:24;33.08;;;5.93;;
40959;SDS011;27842;52.272;8.052;2023-11-19T13:10:25;31.85;;;5.60;;
40959;SDS011;27842;52.272;8.052;2023-11-19T13:13:07;32.58;;;6.88;;
40959;SDS011;27842;52.272;8.052;2023-11-19T13:15:34;38.28;;;5.80;;
40959;SDS011;27842;52.272;8.052;2023-11-19T13:18:00;32.80;;;5.72;;
40959;SDS011;27842;52.272;8.052;2023-11-19T13:20:27;28.80;;;5.35;;
40959;SDS011;27842;52.272;8.052;2023-11-19T13:23:00;26.95;;;5.25;;
40959;SDS011;27842;52.272;8.052;2023-11-19T13:25:27;32.83;;;5.68;;
40959;SDS011;27842;52.272;8.052;2023-11-19T13:27:54;28.90;;;5.38;;
40959;SDS011;27842;52.272;8.052;2023-11-19T13:30:21;31.15;;;6.15;;
40959;SDS011;27842;52.272;8.052;2023-11-19T13:32:47;29.77;;;5.70;;
40959;SDS011;27842;52.272;8.052;2023-11-19T13:35:14;26.83;;;5.30;;
40959;SDS011;27842;52.272;8.052;2023-11-19T13:37:39;30.70;;;5.35;;
40959;SDS011;27842;52.272;8.052;2023-11-19T13:40:08;36.70;;;6.70;;
40959;SDS011;27842;52.272;8.052;2023-11-19T13:45:06;35.50;;;8.25;;
40959;SDS011;27842;52.272;8.052;2023-11-19T13:47:35;30.73;;;6.70;;
40959;SDS011;27842;52.272;8.052;2023-11-19T13:50:01;33.88;;;6.70;;
40959;SDS011;27842;52.272;8.052;2023-11-19T13:52:31;28.08;;;5.72;;
40959;SDS011;27842;52.272;8.052;2023-11-19T13:54:56;33.95;;;6.13;;
40959;SDS011;27842;52.272;8.052;2023-11-19T13:57:22;28.63;;;5.93;;
40959;SDS011;27842;52.272;8.052;2023-11-19T13:59:47;30.70;;;6.05;;
40959;SDS011;27842;52.272;8.052;2023-11-19T14:02:13;28.92;;;5.60;;
40959;SDS011;27842;52.272;8.052;2023-11-19T14:04:38;29.75;;;6.03;;
40959;SDS011;27842;52.272;8.052;2023-11-19T14:07:04;28.58;;;5.57;;
40959;SDS011;27842;52.272;8.052;2023-11-19T14:09:30;33.40;;;6.78;;
40959;SDS011;27842;52.272;8.052;2023-11-19T14:11:55;29.85;;;6.85;;
40959;SDS011;27842;52.272;8.052;2023-11-19T14:14:21;26.02;;;5.20;;
40959;SDS011;27842;52.272;8.052;2023-11-19T14:16:46;32.22;;;5.03;;
40959;SDS011;27842;52.272;8.052;2023-11-19T14:19:12;28.15;;;5.20;;
40959;SDS011;27842;52.272;8.052;2023-11-19T14:21:38;29.60;;;4.78;;
40959;SDS011;27842;52.272;8.052;2023-11-19T14:24:04;24.67;;;4.30;;
40959;SDS011;27842;52.272;8.052;2023-11-19T14:26:30;30.75;;;5.93;;
40959;SDS011;27842;52.272;8.052;2023-11-19T14:28:56;26.85;;;5.25;;
40959;SDS011;27842;52.272;8.052;2023-11-19T14:31:21;27.52;;;5.15;;
40959;SDS011;27842;52.272;8.052;2023-11-19T14:33:47;26.10;;;4.45;;
40959;SDS011;27842;52.272;8.052;2023-11-19T14:36:14;26.50;;;4.60;;
40959;SDS011;27842;52.272;8.052;2023-11-19T14:38:39;26.27;;;4.53;;
40959;SDS011;27842;52.272;8.052;2023-11-19T14:41:05;26.98;;;4.65;;
40959;SDS011;27842;52.272;8.052;2023-11-19T14:43:31;29.35;;;5.22;;
40959;SDS011;27842;52.272;8.052;2023-11-19T14:45:57;29.95;;;5.78;;
40959;SDS011;27842;52.272;8.052;2023-11-19T14:48:22;25.63;;;4.30;;
40959;SDS011;27842;52.272;8.052;2023-11-19T14:50:48;22.85;;;4.75;;